createdAt,value
2023-02-16T00:01:44.871Z,35.33
2023-02-16T00:04:19.568Z,35.50
2023-02-16T00:06:48.220Z,37.63
2023-02-16T00:09:16.537Z,34.35
2023-02-16T00:12:02.159Z,38.80
2023-02-16T00:14:31.850Z,38.00
2023-02-16T00:17:00.642Z,38.60
2023-02-16T00:19:31.502Z,34.08
2023-02-16T00:22:00.786Z,35.80
2023-02-16T00:24:30.688Z,36.58
2023-02-16T00:27:00.608Z,35.42
2023-02-16T00:29:32.112Z,45.65
2023-02-16T00:32:01.854Z,33.22
2023-02-16T00:34:33.469Z,40.17
2023-02-16T00:37:03.709Z,38.63
2023-02-16T00:39:32.173Z,39.15
2023-02-16T00:42:07.075Z,35.15
2023-02-16T00:44:41.356Z,37.08
2023-02-16T00:47:19.520Z,43.40
2023-02-16T00:49:48.331Z,37.60
2023-02-16T00:52:32.582Z,39.50
2023-02-16T00:55:01.625Z,38.65
2023-02-16T00:57:34.091Z,39.20
2023-02-16T01:00:09.445Z,41.97
2023-02-16T01:02:37.585Z,37.38
2023-02-16T01:05:06.015Z,41.17
2023-02-16T01:07:51.312Z,35.08
2023-02-16T01:10:36.985Z,39.88
2023-02-16T01:13:05.444Z,38.78
2023-02-16T01:15:37.453Z,38.90
2023-02-16T01:18:05.580Z,38.30
2023-02-16T01:20:36.198Z,38.05
2023-02-16T01:23:04.425Z,42.15
2023-02-16T01:25:33.733Z,46.85
2023-02-16T01:28:01.741Z,39.72
2023-02-16T01:30:30.121Z,39.13
2023-02-16T01:32:59.520Z,37.88
2023-02-16T01:35:31.834Z,47.03
2023-02-16T01:38:00.447Z,44.72
2023-02-16T01:40:38.086Z,36.80
2023-02-16T01:43:17.442Z,37.90
2023-02-16T01:45:48.177Z,38.70
2023-02-16T01:48:22.645Z,41.25
2023-02-16T01:51:00.365Z,40.42
2023-02-16T01:53:33.765Z,39.05
2023-02-16T01:56:05.439Z,39.08
2023-02-16T01:58:40.835Z,41.05
2023-02-16T02:01:40.167Z,39.63
2023-02-16T02:04:40.322Z,41.03
2023-02-16T02:07:12.062Z,38.78
2023-02-16T02:09:45.303Z,40.45
2023-02-16T02:12:24.555Z,41.40
2023-02-16T02:14:52.572Z,40.60
2023-02-16T02:17:22.207Z,39.30
2023-02-16T02:20:02.347Z,39.67
2023-02-16T02:23:31.268Z,38.88
2023-02-16T02:26:39.764Z,41.28
2023-02-16T02:29:17.516Z,39.05
2023-02-16T02:31:57.731Z,36.55
2023-02-16T02:34:37.172Z,40.30
2023-02-16T02:37:12.682Z,40.88
2023-02-16T02:39:51.974Z,46.22
2023-02-16T02:42:26.631Z,40.58
2023-02-16T02:45:02.912Z,40.58
2023-02-16T02:47:40.075Z,36.25
2023-02-16T02:51:07.607Z,40.70
2023-02-16T02:53:41.039Z,34.55
2023-02-16T02:56:28.738Z,35.97
2023-02-16T02:59:17.885Z,34.47
2023-02-16T03:01:52.664Z,41.80
2023-02-16T03:04:26.237Z,42.47
2023-02-16T03:06:57.053Z,43.92
2023-02-16T03:09:26.044Z,37.20
2023-02-16T03:12:13.363Z,36.97
2023-02-16T03:14:45.468Z,40.28
2023-02-16T03:17:34.801Z,41.53
2023-02-16T03:20:24.093Z,38.90
2023-02-16T03:23:10.208Z,38.00
2023-02-16T03:25:57.684Z,38.38
2023-02-16T03:28:46.982Z,37.22
2023-02-16T03:31:19.893Z,34.42
2023-02-16T03:33:54.538Z,38.67
2023-02-16T03:36:23.105Z,39.38
2023-02-16T03:38:51.936Z,38.00
2023-02-16T03:41:20.056Z,40.45
2023-02-16T03:43:48.149Z,40.03
2023-02-16T03:46:17.633Z,45.10
2023-02-16T03:48:45.666Z,42.17
2023-02-16T03:51:13.706Z,37.08
2023-02-16T03:53:41.847Z,40.72
2023-02-16T03:56:09.844Z,39.10
2023-02-16T03:58:38.040Z,35.80
2023-02-16T04:01:06.661Z,39.22
2023-02-16T04:03:36.373Z,34.88
2023-02-16T04:06:05.008Z,42.53
2023-02-16T04:08:33.081Z,42.70
2023-02-16T04:11:01.179Z,41.05
2023-02-16T04:13:28.190Z,43.78
2023-02-16T04:15:56.203Z,44.63
2023-02-16T04:18:24.233Z,44.10
2023-02-16T04:20:54.526Z,47.25
2023-02-16T04:23:22.659Z,39.90
2023-02-16T04:25:50.747Z,41.17
2023-02-16T04:28:18.846Z,43.05
2023-02-16T04:30:46.967Z,44.42
2023-02-16T04:33:15.094Z,46.00
2023-02-16T04:35:43.294Z,43.72
2023-02-16T04:38:12.737Z,42.88
2023-02-16T04:40:41.012Z,39.38
2023-02-16T04:43:08.994Z,43.30
2023-02-16T04:45:36.995Z,39.33
2023-02-16T04:48:05.320Z,40.25
2023-02-16T04:50:33.320Z,40.10
2023-02-16T04:53:01.406Z,41.10
2023-02-16T04:55:30.953Z,42.13
2023-02-16T04:57:59.148Z,45.58
2023-02-16T05:00:29.961Z,39.70
2023-02-16T05:02:58.395Z,38.17
2023-02-16T05:05:26.384Z,48.10
2023-02-16T05:07:54.403Z,39.55
2023-02-16T05:10:22.529Z,45.67
2023-02-16T05:13:09.595Z,48.25
2023-02-16T05:15:38.016Z,40.63
2023-02-16T05:18:06.393Z,48.70
2023-02-16T05:20:51.033Z,48.70
2023-02-16T05:23:19.179Z,42.83
2023-02-16T05:25:47.250Z,45.00
2023-02-16T05:28:16.824Z,45.00
2023-02-16T05:30:44.890Z,46.38
2023-02-16T05:33:12.924Z,42.25
2023-02-16T05:35:41.579Z,43.78
2023-02-16T05:38:09.640Z,44.08
2023-02-16T05:40:37.766Z,46.13
2023-02-16T05:43:05.832Z,40.25
2023-02-16T05:45:35.240Z,36.38
2023-02-16T05:48:03.344Z,40.13
2023-02-16T05:50:31.452Z,43.53
2023-02-16T05:53:00.498Z,43.97
2023-02-16T05:55:28.721Z,34.53
2023-02-16T05:57:56.778Z,39.78
2023-02-16T06:00:25.204Z,38.72
2023-02-16T06:02:54.671Z,34.63
2023-02-16T06:05:22.759Z,36.85
2023-02-16T06:07:50.894Z,33.30
2023-02-16T06:10:19.127Z,35.78
2023-02-16T06:12:47.190Z,35.72
2023-02-16T06:15:15.306Z,35.22
2023-02-16T06:17:44.690Z,39.63
2023-02-16T06:20:14.624Z,43.47
2023-02-16T06:22:42.994Z,30.33
2023-02-16T06:25:11.191Z,29.55
2023-02-16T06:27:39.316Z,34.50
2023-02-16T06:30:08.834Z,33.53
2023-02-16T06:32:36.974Z,34.60
2023-02-16T06:35:05.446Z,34.42
2023-02-16T06:37:35.775Z,36.38
2023-02-16T06:40:03.884Z,32.97
2023-02-16T06:42:31.910Z,35.65
2023-02-16T06:44:59.946Z,33.90
2023-02-16T06:47:27.961Z,41.40
2023-02-16T06:49:56.299Z,34.30
2023-02-16T06:52:24.520Z,35.35
2023-02-16T06:54:53.870Z,35.75
2023-02-16T06:57:21.828Z,30.88
2023-02-16T06:59:49.830Z,32.63
2023-02-16T07:02:18.608Z,42.40
2023-02-16T07:04:46.672Z,34.65
2023-02-16T07:07:14.733Z,30.88
2023-02-16T07:09:42.918Z,31.52
2023-02-16T07:12:12.392Z,35.42
2023-02-16T07:14:41.606Z,30.88
2023-02-16T07:17:10.562Z,33.05
2023-02-16T07:19:38.640Z,29.90
2023-02-16T07:22:06.603Z,31.17
2023-02-16T07:24:35.512Z,33.35
2023-02-16T07:27:04.452Z,37.35
2023-02-16T07:29:33.812Z,33.10
2023-02-16T07:32:02.510Z,34.50
2023-02-16T07:34:30.632Z,31.70
2023-02-16T07:36:59.296Z,30.27
2023-02-16T07:39:28.992Z,33.92
2023-02-16T07:41:57.073Z,34.60
2023-02-16T07:44:27.331Z,29.40
2023-02-16T07:46:56.684Z,27.05
2023-02-16T07:49:25.072Z,30.40
2023-02-16T07:51:53.106Z,33.30
2023-02-16T07:54:21.252Z,28.55
2023-02-16T07:56:49.249Z,30.83
2023-02-16T07:59:17.629Z,25.23
2023-02-16T08:01:45.672Z,28.00
2023-02-16T08:04:15.048Z,29.65
2023-02-16T08:06:43.063Z,28.85
2023-02-16T08:09:11.144Z,27.40
2023-02-16T08:11:39.152Z,30.38
2023-02-16T08:14:07.146Z,27.88
2023-02-16T08:16:35.141Z,28.95
2023-02-16T08:19:04.534Z,30.75
2023-02-16T08:21:35.244Z,25.73
2023-02-16T08:24:04.879Z,26.10
2023-02-16T08:26:37.520Z,30.63
2023-02-16T08:29:06.617Z,27.50
2023-02-16T08:31:38.196Z,27.48
2023-02-16T08:34:06.935Z,31.38
2023-02-16T08:36:38.560Z,28.30
2023-02-16T08:39:08.619Z,29.85
2023-02-16T08:41:38.197Z,28.33
2023-02-16T08:44:07.982Z,29.58
2023-02-16T08:46:37.445Z,30.70
2023-02-16T08:49:05.563Z,28.08
2023-02-16T08:51:38.065Z,27.65
2023-02-16T08:54:08.160Z,30.67
2023-02-16T08:56:36.806Z,28.40
2023-02-16T08:59:04.880Z,28.77
2023-02-16T09:01:33.116Z,26.30
2023-02-16T09:04:01.647Z,25.92
2023-02-16T09:06:29.843Z,48.05
2023-02-16T09:08:59.155Z,27.02
2023-02-16T09:11:27.172Z,28.02
2023-02-16T09:13:55.325Z,24.13
2023-02-16T09:16:25.082Z,27.98
2023-02-16T09:18:53.698Z,29.05
2023-02-16T09:21:25.355Z,31.70
2023-02-16T09:23:56.498Z,29.20
2023-02-16T09:26:26.813Z,29.00
2023-02-16T09:28:55.978Z,30.15
2023-02-16T09:31:27.255Z,26.30
2023-02-16T09:33:57.168Z,30.27
2023-02-16T09:36:25.756Z,30.80
2023-02-16T09:38:54.511Z,24.10
2023-02-16T09:41:32.040Z,23.95
2023-02-16T09:44:04.369Z,27.52
2023-02-16T09:46:34.616Z,28.80
2023-02-16T09:49:04.319Z,24.75
2023-02-16T09:51:36.162Z,27.60
2023-02-16T09:54:17.865Z,34.78
2023-02-16T09:56:53.987Z,29.38
2023-02-16T09:59:36.937Z,24.33
2023-02-16T10:02:28.127Z,29.40
2023-02-16T10:05:09.654Z,24.02
2023-02-16T10:07:46.660Z,28.00
2023-02-16T10:10:17.417Z,31.83
2023-02-16T10:12:51.583Z,28.75
2023-02-16T10:15:22.815Z,28.80
2023-02-16T10:17:56.056Z,26.77
2023-02-16T10:20:27.953Z,31.88
2023-02-16T10:23:02.372Z,27.75
2023-02-16T10:25:40.350Z,23.90
2023-02-16T10:28:17.513Z,29.15
2023-02-16T10:30:51.588Z,28.02
2023-02-16T10:33:31.918Z,26.15
2023-02-16T10:36:02.389Z,30.52
2023-02-16T10:38:37.589Z,25.08
2023-02-16T10:41:14.748Z,22.02
2023-02-16T10:43:48.920Z,29.85
2023-02-16T10:46:22.938Z,28.63
2023-02-16T10:48:54.362Z,29.33
2023-02-16T10:51:27.398Z,26.60
2023-02-16T10:54:00.245Z,27.27
2023-02-16T10:56:46.459Z,30.02
2023-02-16T10:59:19.536Z,34.38
2023-02-16T11:01:50.613Z,23.90
2023-02-16T11:04:34.104Z,24.50
2023-02-16T11:07:05.059Z,27.98
2023-02-16T11:09:33.433Z,24.70
2023-02-16T11:12:01.681Z,25.30
2023-02-16T11:14:32.842Z,29.63
2023-02-16T11:17:07.465Z,27.13
2023-02-16T11:19:36.397Z,29.50
2023-02-16T11:22:04.448Z,28.05
2023-02-16T11:24:34.500Z,30.15
2023-02-16T11:27:05.344Z,30.90
2023-02-16T11:29:35.512Z,33.25
2023-02-16T11:32:08.486Z,29.63
2023-02-16T11:34:40.887Z,27.45
2023-02-16T11:37:16.876Z,30.50
2023-02-16T11:39:51.321Z,28.40
2023-02-16T11:42:26.909Z,30.88
2023-02-16T11:44:58.149Z,28.25
2023-02-16T11:47:28.909Z,26.15
2023-02-16T11:50:19.713Z,27.92
2023-02-16T11:52:49.578Z,30.50
2023-02-16T11:55:26.978Z,29.65
2023-02-16T11:57:57.046Z,28.95
2023-02-16T12:00:27.564Z,28.65
2023-02-16T12:03:14.304Z,27.02
2023-02-16T12:05:54.663Z,31.80
2023-02-16T12:08:36.776Z,27.38
2023-02-16T12:11:25.382Z,26.63
2023-02-16T12:14:05.248Z,27.55
2023-02-16T12:16:42.164Z,30.23
2023-02-16T12:19:21.931Z,31.17
2023-02-16T12:21:53.139Z,32.08
2023-02-16T12:24:36.330Z,27.25
2023-02-16T12:27:07.244Z,31.50
2023-02-16T12:29:44.959Z,25.67
2023-02-16T12:32:32.722Z,29.23
2023-02-16T12:35:39.556Z,29.35
2023-02-16T12:38:19.770Z,32.40
2023-02-16T12:41:01.672Z,32.67
2023-02-16T12:43:39.555Z,25.00
2023-02-16T12:46:15.160Z,27.25
2023-02-16T12:48:49.801Z,27.42
2023-02-16T12:51:21.666Z,25.50
2023-02-16T12:53:57.695Z,29.98
2023-02-16T12:56:29.433Z,29.27
2023-02-16T12:59:16.721Z,27.77
2023-02-16T13:01:47.326Z,31.88
2023-02-16T13:04:23.092Z,28.67
2023-02-16T13:06:57.874Z,27.25
2023-02-16T13:09:34.974Z,33.60
2023-02-16T13:12:08.749Z,30.85
2023-02-16T13:14:42.915Z,28.58
2023-02-16T13:17:17.003Z,26.95
2023-02-16T13:19:48.061Z,32.55
2023-02-16T13:22:41.290Z,27.55
2023-02-16T13:25:28.147Z,30.98
2023-02-16T13:28:06.388Z,33.42
2023-02-16T13:30:52.281Z,31.98
2023-02-16T13:33:37.635Z,25.65
2023-02-16T13:36:24.123Z,31.50
2023-02-16T13:39:31.584Z,29.45
2023-02-16T13:42:18.425Z,33.35
2023-02-16T13:44:49.767Z,28.63
2023-02-16T13:47:25.510Z,34.13
2023-02-16T13:49:58.789Z,30.33
2023-02-16T13:52:41.323Z,29.85
2023-02-16T13:55:24.467Z,29.60
2023-02-16T13:58:05.703Z,30.95
2023-02-16T14:00:38.020Z,31.83
2023-02-16T14:03:12.284Z,33.67
2023-02-16T14:05:43.640Z,27.15
2023-02-16T14:08:19.448Z,29.23
2023-02-16T14:11:19.118Z,33.30
2023-02-16T14:13:49.923Z,35.22
2023-02-16T14:16:33.531Z,31.73
2023-02-16T14:19:17.642Z,31.60
2023-02-16T14:21:48.051Z,38.20
2023-02-16T14:24:30.657Z,33.90
2023-02-16T14:27:01.065Z,31.40
2023-02-16T14:29:32.343Z,31.48
2023-02-16T14:32:07.227Z,39.03
2023-02-16T14:34:41.326Z,37.75
2023-02-16T14:37:31.653Z,33.75
2023-02-16T14:40:18.131Z,30.70
2023-02-16T14:42:57.577Z,32.83
2023-02-16T14:45:53.825Z,35.65
2023-02-16T14:48:33.237Z,33.45
2023-02-16T14:51:39.577Z,33.20
2023-02-16T14:54:52.403Z,33.45
2023-02-16T14:57:25.257Z,35.67
2023-02-16T14:59:57.960Z,33.75
2023-02-16T15:02:28.946Z,36.28
2023-02-16T15:04:58.191Z,36.30
2023-02-16T15:07:29.012Z,31.60
2023-02-16T15:09:59.150Z,34.28
2023-02-16T15:12:41.257Z,33.88
2023-02-16T15:15:18.714Z,34.70
2023-02-16T15:17:48.819Z,33.83
2023-02-16T15:20:24.926Z,30.25
2023-02-16T15:22:53.933Z,34.67
2023-02-16T15:25:26.301Z,34.63
2023-02-16T15:28:00.285Z,46.83
2023-02-16T15:30:31.026Z,57.78
2023-02-16T15:33:01.349Z,100.47
2023-02-16T15:35:34.644Z,84.43
2023-02-16T15:38:10.335Z,34.15
2023-02-16T15:40:38.951Z,35.40
2023-02-16T15:43:24.893Z,34.17
2023-02-16T15:45:54.827Z,36.97
2023-02-16T15:48:29.299Z,42.40
2023-02-16T15:51:02.239Z,39.25
2023-02-16T15:53:45.729Z,44.63
2023-02-16T15:56:29.062Z,44.15
2023-02-16T15:59:01.624Z,40.05
2023-02-16T16:01:37.348Z,46.80
2023-02-16T16:04:14.748Z,46.50
2023-02-16T16:06:42.975Z,52.63
2023-02-16T16:09:18.859Z,47.90
2023-02-16T16:11:47.850Z,39.70
2023-02-16T16:14:17.904Z,43.40
2023-02-16T16:16:46.605Z,43.55
2023-02-16T16:19:20.176Z,43.95
2023-02-16T16:21:51.407Z,43.65
2023-02-16T16:24:33.657Z,42.03
2023-02-16T16:27:05.922Z,39.60
2023-02-16T16:29:38.141Z,46.58
2023-02-16T16:32:08.785Z,47.60
2023-02-16T16:34:39.547Z,43.72
2023-02-16T16:37:17.597Z,45.45
2023-02-16T16:40:01.143Z,43.20
2023-02-16T16:42:29.536Z,45.97
2023-02-16T16:45:03.029Z,43.63
2023-02-16T16:47:34.845Z,46.45
2023-02-16T16:50:06.316Z,45.20
2023-02-16T16:52:38.080Z,46.88
2023-02-16T16:55:30.513Z,40.40
2023-02-16T16:58:01.025Z,41.13
2023-02-16T17:00:34.495Z,45.15
2023-02-16T17:03:02.974Z,38.72
2023-02-16T17:05:31.185Z,40.72
2023-02-16T17:07:59.240Z,45.30
2023-02-16T17:10:27.792Z,38.15
2023-02-16T17:12:59.910Z,41.20
2023-02-16T17:15:37.148Z,38.67
2023-02-16T17:18:06.516Z,42.38
2023-02-16T17:20:34.488Z,43.50
2023-02-16T17:23:04.865Z,38.88
2023-02-16T17:25:36.586Z,37.83
2023-02-16T17:28:05.450Z,43.53
2023-02-16T17:30:35.386Z,43.50
2023-02-16T17:33:03.739Z,43.42
2023-02-16T17:35:32.663Z,41.80
2023-02-16T17:38:00.864Z,39.83
2023-02-16T17:40:28.861Z,42.35
2023-02-16T17:42:56.807Z,45.85
2023-02-16T17:45:24.731Z,43.28
2023-02-16T17:47:54.339Z,44.88
2023-02-16T17:50:22.520Z,44.42
2023-02-16T17:52:57.026Z,46.55
2023-02-16T17:55:28.019Z,40.15
2023-02-16T17:57:58.117Z,50.00
2023-02-16T18:00:26.277Z,48.45
2023-02-16T18:02:55.765Z,43.72
2023-02-16T18:05:23.855Z,44.38
2023-02-16T18:07:52.855Z,57.55
2023-02-16T18:10:33.423Z,50.05
2023-02-16T18:13:01.842Z,48.85
2023-02-16T18:15:30.036Z,47.47
2023-02-16T18:17:59.833Z,54.38
2023-02-16T18:20:28.028Z,52.75
2023-02-16T18:22:56.097Z,48.83
2023-02-16T18:25:24.433Z,45.40
2023-02-16T18:27:52.426Z,39.65
2023-02-16T18:30:20.995Z,48.05
2023-02-16T18:32:49.110Z,46.60
2023-02-16T18:35:19.284Z,43.53
2023-02-16T18:37:48.009Z,44.80
2023-02-16T18:40:19.894Z,46.58
2023-02-16T18:42:48.614Z,47.55
2023-02-16T18:45:16.886Z,39.78
2023-02-16T18:47:45.424Z,45.38
2023-02-16T18:50:13.805Z,45.80
2023-02-16T18:52:45.004Z,45.38
2023-02-16T18:55:15.495Z,48.67
2023-02-16T18:57:43.678Z,47.92
2023-02-16T19:00:14.811Z,47.22
2023-02-16T19:02:43.290Z,43.63
2023-02-16T19:05:11.868Z,48.40
2023-02-16T19:07:39.982Z,45.28
2023-02-16T19:10:10.426Z,46.60
2023-02-16T19:12:38.771Z,47.67
2023-02-16T19:15:07.893Z,51.03
2023-02-16T19:17:36.256Z,46.55
2023-02-16T19:20:05.244Z,50.00
2023-02-16T19:22:36.821Z,43.05
2023-02-16T19:25:04.848Z,44.47
2023-02-16T19:27:35.082Z,45.17
2023-02-16T19:30:03.899Z,45.67
2023-02-16T19:32:32.910Z,45.95
2023-02-16T19:35:01.329Z,50.25
2023-02-16T19:37:29.307Z,45.20
2023-02-16T19:39:57.425Z,44.40
2023-02-16T19:42:25.937Z,49.17
2023-02-16T19:44:55.609Z,47.17
2023-02-16T19:47:23.561Z,45.72
2023-02-16T19:49:51.674Z,45.25
2023-02-16T19:52:19.646Z,46.33
2023-02-16T19:54:47.883Z,47.38
2023-02-16T19:57:16.044Z,46.92
2023-02-16T19:59:44.185Z,48.25
2023-02-16T20:02:14.734Z,47.85
2023-02-16T20:04:43.244Z,48.42
2023-02-16T20:07:11.482Z,44.90
2023-02-16T20:09:39.956Z,45.25
2023-02-16T20:12:08.677Z,50.13
2023-02-16T20:14:36.959Z,41.65
2023-02-16T20:17:05.011Z,44.47
2023-02-16T20:19:34.940Z,43.45
2023-02-16T20:22:03.213Z,42.88
2023-02-16T20:24:31.246Z,38.05
2023-02-16T20:27:04.229Z,42.92
2023-02-16T20:29:32.973Z,37.33
2023-02-16T20:32:01.128Z,41.42
2023-02-16T20:34:29.580Z,34.80
2023-02-16T20:36:59.160Z,39.45
2023-02-16T20:39:27.256Z,37.90
2023-02-16T20:41:55.466Z,41.47
2023-02-16T20:44:23.518Z,42.40
2023-02-16T20:46:52.141Z,39.30
2023-02-16T20:49:20.187Z,38.80
2023-02-16T20:51:48.239Z,37.33
2023-02-16T20:54:17.570Z,40.10
2023-02-16T20:56:45.925Z,41.53
2023-02-16T20:59:14.186Z,37.30
2023-02-16T21:01:46.377Z,36.40
2023-02-16T21:04:17.347Z,36.17
2023-02-16T21:06:46.519Z,38.63
2023-02-16T21:09:15.362Z,35.40
2023-02-16T21:11:45.080Z,37.88
2023-02-16T21:14:14.460Z,35.17
2023-02-16T21:16:42.694Z,34.55
2023-02-16T21:19:22.172Z,34.67
2023-02-16T21:21:51.493Z,38.50
2023-02-16T21:24:19.580Z,38.58
2023-02-16T21:26:49.181Z,39.95
2023-02-16T21:29:17.298Z,41.15
2023-02-16T21:31:45.500Z,40.50
2023-02-16T21:34:13.765Z,42.65
2023-02-16T21:36:41.790Z,43.05
2023-02-16T21:39:09.895Z,43.03
2023-02-16T21:41:36.992Z,42.97
2023-02-16T21:44:08.641Z,41.95
2023-02-16T21:46:38.963Z,51.33
2023-02-16T21:49:06.883Z,48.95
2023-02-16T21:51:36.502Z,46.63
2023-02-16T21:54:06.837Z,49.38
2023-02-16T21:56:37.958Z,52.50
2023-02-16T21:59:09.935Z,47.67
2023-02-16T22:01:42.566Z,53.92
2023-02-16T22:04:13.680Z,46.65
2023-02-16T22:06:43.948Z,46.40
2023-02-16T22:09:14.197Z,42.30
2023-02-16T22:11:42.805Z,44.95
2023-02-16T22:14:12.464Z,41.20
2023-02-16T22:16:41.560Z,47.05
2023-02-16T22:19:12.927Z,50.13
2023-02-16T22:21:43.635Z,40.97
2023-02-16T22:24:13.374Z,42.20
2023-02-16T22:26:42.114Z,44.83
2023-02-16T22:29:12.504Z,45.33
2023-02-16T22:31:45.329Z,45.20
2023-02-16T22:34:15.386Z,47.75
2023-02-16T22:36:43.799Z,47.60
2023-02-16T22:39:13.711Z,46.08
2023-02-16T22:41:42.226Z,40.40
2023-02-16T22:44:12.937Z,46.10
2023-02-16T22:46:40.963Z,44.95
2023-02-16T22:49:10.131Z,36.20
2023-02-16T22:51:38.503Z,43.40
2023-02-16T22:54:07.533Z,43.35
2023-02-16T22:56:36.042Z,41.58
2023-02-16T22:59:04.121Z,42.95
2023-02-16T23:01:34.253Z,38.90
2023-02-16T23:04:02.788Z,38.38
2023-02-16T23:06:33.276Z,42.42
2023-02-16T23:09:04.014Z,39.22
2023-02-16T23:11:32.284Z,41.58
2023-02-16T23:14:00.236Z,43.80
2023-02-16T23:16:29.203Z,39.08
2023-02-16T23:19:00.101Z,39.95
2023-02-16T23:21:32.117Z,42.78
2023-02-16T23:24:01.372Z,43.60
2023-02-16T23:26:30.952Z,43.08
2023-02-16T23:29:00.671Z,43.75
2023-02-16T23:31:31.542Z,47.88
2023-02-16T23:34:02.463Z,42.67
2023-02-16T23:36:30.875Z,47.08
2023-02-16T23:39:01.438Z,39.92
2023-02-16T23:41:29.767Z,50.17
2023-02-16T23:43:59.473Z,43.85
2023-02-16T23:46:28.982Z,44.75
2023-02-16T23:48:57.021Z,42.40
2023-02-16T23:51:27.067Z,41.13
2023-02-16T23:53:55.563Z,40.20
2023-02-16T23:56:26.110Z,39.00
2023-02-16T23:58:57.405Z,46.50
